Time;durP1;ratioP1;P1;durP2;ratioP2;P2;SDS_P1;SDS_P2;PMS_P1;PMS_P2;Temp;Humidity;BMP_temperature;BMP_pressure;BME280_temperature;BME280_humidity;BME280_pressure;Samples;Min_cycle;Max_cycle;Signal;HPM_P1;HPM_P2
2023/12/15 00:00:07;;;;;;;30.45;22.27;;;10.50;99.90;;;10.73;100.00;102579.09;4880479;29;20162;-70
2023/12/15 00:02:38;;;;;;;34.47;22.77;;;10.40;99.90;;;10.70;100.00;102579.06;4880998;29;20063;-68
2023/12/15 00:05:09;;;;;;;29.88;21.88;;;10.40;99.90;;;10.70;100.00;102579.91;4894756;29;20392;-68
2023/12/15 00:07:37;;;;;;;27.88;21.67;;;10.50;99.90;;;10.69;100.00;102579.88;4881026;29;20087;-67
2023/12/15 00:10:08;;;;;;;28.10;21.83;;;10.40;99.90;;;10.68;100.00;102584.28;4880663;29;20055;-68
2023/12/15 00:12:37;;;;;;;27.60;20.85;;;10.40;99.90;;;10.64;100.00;102585.09;4880651;29;20148;-70
2023/12/15 00:15:06;;;;;;;30.55;22.25;;;10.40;99.90;;;10.71;100.00;102594.06;4880345;29;20101;-67
2023/12/15 00:17:35;;;;;;;29.13;21.00;;;10.40;99.90;;;10.73;100.00;102601.19;4880519;29;20049;-68
2023/12/15 00:20:05;;;;;;;33.53;22.27;;;10.50;99.90;;;10.77;100.00;102610.97;4880507;29;20044;-68
2023/12/15 00:22:35;;;;;;;32.57;22.80;;;10.50;99.90;;;10.73;100.00;102618.81;4880214;29;20044;-68
2023/12/15 00:25:04;;;;;;;34.50;23.70;;;10.50;99.90;;;10.76;100.00;102624.19;4894439;29;20641;-68
2023/12/15 00:27:33;;;;;;;34.55;23.27;;;10.50;99.90;;;10.76;100.00;102625.06;4880051;29;20052;-69
2023/12/15 00:30:02;;;;;;;30.95;22.83;;;10.50;99.90;;;10.78;100.00;102626.00;4880238;29;20491;-68
2023/12/15 00:32:30;;;;;;;32.10;23.27;;;10.50;99.90;;;10.74;100.00;102620.63;4880145;29;20053;-68
2023/12/15 00:34:59;;;;;;;29.60;21.40;;;10.50;99.90;;;10.76;100.00;102627.69;4880078;29;20049;-68
2023/12/15 00:37:27;;;;;;;34.42;22.33;;;10.50;99.90;;;10.80;100.00;102628.69;4880418;29;20440;-68
2023/12/15 00:39:57;;;;;;;29.40;22.45;;;10.50;99.90;;;10.81;100.00;102617.22;4879779;29;20067;-68
2023/12/15 00:42:25;;;;;;;35.10;23.90;;;10.50;99.90;;;10.78;100.00;102607.47;4879770;29;20444;-68
2023/12/15 00:44:54;;;;;;;31.80;22.65;;;10.50;99.90;;;10.78;100.00;102604.81;4879965;29;20041;-68
2023/12/15 00:47:22;;;;;;;34.90;22.85;;;10.50;99.90;;;10.81;100.00;102604.91;4879759;29;20074;-68
2023/12/15 00:49:50;;;;;;;31.17;22.15;;;10.60;99.90;;;10.75;100.00;102618.00;4879724;29;20503;-68
2023/12/15 00:52:19;;;;;;;31.48;22.25;;;10.50;99.90;;;10.72;100.00;102622.31;4879615;29;20056;-69
2023/12/15 00:54:47;;;;;;;35.30;22.80;;;10.40;99.90;;;10.65;100.00;102626.56;4879849;29;20113;-68
2023/12/15 00:57:17;;;;;;;32.63;22.60;;;10.40;99.90;;;10.66;100.00;102628.38;4879836;29;20053;-68
2023/12/15 00:59:45;;;;;;;31.30;23.07;;;10.40;99.90;;;10.70;100.00;102629.34;4879719;29;20479;-68
2023/12/15 01:02:14;;;;;;;34.85;22.45;;;10.50;99.90;;;10.66;100.00;102627.47;4879485;29;20105;-68
2023/12/15 01:04:42;;;;;;;34.30;22.23;;;10.40;99.90;;;10.63;100.00;102630.03;4879754;29;20056;-68
2023/12/15 01:07:10;;;;;;;33.58;22.90;;;10.40;99.90;;;10.63;100.00;102625.63;4879721;29;20069;-68
2023/12/15 01:09:39;;;;;;;32.67;22.70;;;10.40;99.90;;;10.63;100.00;102632.69;4879413;29;20101;-68
2023/12/15 01:12:07;;;;;;;34.22;23.10;;;10.40;99.90;;;10.64;100.00;102627.44;4879465;29;20410;-68
2023/12/15 01:14:37;;;;;;;30.92;21.40;;;10.40;99.90;;;10.62;100.00;102623.88;4879329;29;20073;-67
2023/12/15 01:17:05;;;;;;;30.10;23.60;;;10.40;99.90;;;10.62;100.00;102634.47;4879373;29;20461;-68
2023/12/15 01:19:34;;;;;;;31.58;21.63;;;10.40;99.90;;;10.58;100.00;102635.25;4879364;29;20728;-68
2023/12/15 01:22:02;;;;;;;33.60;23.05;;;10.40;99.90;;;10.56;100.00;102642.25;4879204;29;20413;-68
2023/12/15 01:24:31;;;;;;;30.83;21.65;;;10.30;99.90;;;10.54;100.00;102627.19;4879366;29;20033;-68
2023/12/15 01:26:59;;;;;;;31.58;21.70;;;10.30;99.90;;;10.53;100.00;102625.41;4879146;29;20105;-68
2023/12/15 01:29:27;;;;;;;29.77;21.15;;;10.30;99.90;;;10.51;100.00;102627.13;4879200;29;20061;-68
2023/12/15 01:31:57;;;;;;;26.30;20.27;;;10.30;99.90;;;10.43;100.00;102641.91;4878988;29;20490;-68
2023/12/15 01:34:26;;;;;;;30.67;21.35;;;10.20;99.90;;;10.45;100.00;102640.19;4879092;29;20057;-68
2023/12/15 01:36:54;;;;;;;35.50;21.27;;;10.20;99.90;;;10.48;100.00;102633.22;4893636;29;20099;-68
2023/12/15 01:39:22;;;;;;;31.60;20.98;;;10.20;99.90;;;10.46;100.00;102631.38;4878931;29;20049;-68
2023/12/15 01:41:50;;;;;;;32.42;20.05;;;10.20;99.90;;;10.43;100.00;102642.78;4879186;29;20428;-68
2023/12/15 01:44:19;;;;;;;31.90;21.00;;;10.20;99.90;;;10.44;100.00;102651.63;4879000;29;20109;-68
2023/12/15 01:46:47;;;;;;;31.17;20.00;;;10.20;99.90;;;10.45;100.00;102670.16;4878796;29;20048;-68
2023/12/15 01:49:17;;;;;;;31.58;20.85;;;10.20;99.90;;;10.43;100.00;102674.53;4879614;29;20052;-68
2023/12/15 01:51:45;;;;;;;33.07;21.03;;;10.20;99.90;;;10.46;100.00;102679.91;4878904;29;20056;-68
2023/12/15 01:54:13;;;;;;;26.73;20.13;;;10.20;99.90;;;10.50;100.00;102678.22;4878979;29;20302;-68
2023/12/15 01:56:41;;;;;;;30.75;21.20;;;10.20;99.90;;;10.52;100.00;102687.09;4879811;29;20049;-68
2023/12/15 01:59:11;;;;;;;31.67;20.30;;;10.30;99.90;;;10.52;100.00;102697.69;4882962;29;20080;-68
2023/12/15 02:01:40;;;;;;;26.38;19.60;;;10.20;99.90;;;10.52;100.00;102701.22;4882950;29;20057;-68
2023/12/15 02:04:08;;;;;;;28.33;18.95;;;10.20;99.90;;;10.56;100.00;102710.13;4882672;29;20084;-67
2023/12/15 02:06:38;;;;;;;26.10;19.77;;;10.30;99.90;;;10.55;100.00;102719.81;4882525;29;20545;-68
2023/12/15 02:09:07;;;;;;;27.27;18.73;;;10.30;99.90;;;10.58;100.00;102721.66;4882797;29;20077;-68
2023/12/15 02:11:36;;;;;;;23.42;17.92;;;10.30;99.90;;;10.62;100.00;102732.38;4882638;29;20407;-68
2023/12/15 02:14:04;;;;;;;32.53;20.08;;;10.30;99.90;;;10.58;100.00;102730.50;4882464;29;20049;-68
2023/12/15 02:16:35;;;;;;;28.70;17.92;;;10.30;99.90;;;10.39;100.00;102701.78;4882427;29;20045;-68
2023/12/15 02:19:03;;;;;;;26.33;17.98;;;10.40;99.90;;;10.67;100.00;102729.81;4912835;29;20126;-68
2023/12/15 02:21:34;;;;;;;29.58;17.98;;;10.40;99.90;;;10.69;100.00;102746.63;4896742;29;20081;-68
2023/12/15 02:24:04;;;;;;;28.00;16.77;;;10.40;99.90;;;10.69;100.00;102751.94;4882379;29;20049;-68
2023/12/15 02:26:32;;;;;;;25.15;17.45;;;10.40;99.90;;;10.72;100.00;102755.53;4882346;29;20448;-68
2023/12/15 02:29:00;;;;;;;25.02;16.92;;;10.40;99.90;;;10.61;100.00;102733.22;4882549;29;20239;-68
2023/12/15 02:31:29;;;;;;;28.23;16.23;;;10.50;99.90;;;10.77;100.00;102753.00;4882236;29;20049;-68
2023/12/15 02:33:57;;;;;;;25.73;16.60;;;10.50;99.90;;;10.80;100.00;102753.97;4882153;29;20056;-68
2023/12/15 02:36:26;;;;;;;27.33;16.40;;;10.50;99.90;;;10.78;100.00;102750.41;4882103;29;20053;-68
2023/12/15 02:38:54;;;;;;;27.33;15.77;;;10.60;99.90;;;10.81;100.00;102758.44;4882200;29;20057;-68
2023/12/15 02:41:24;;;;;;;25.88;14.88;;;10.60;99.90;;;10.81;100.00;102765.47;4882144;29;20053;-68
2023/12/15 02:43:52;;;;;;;26.73;15.17;;;10.50;99.90;;;10.82;100.00;102756.66;4882534;29;20067;-70
2023/12/15 02:46:21;;;;;;;24.48;15.80;;;10.60;99.90;;;10.85;100.00;102764.69;4882065;29;20783;-68
2023/12/15 02:48:49;;;;;;;22.83;14.60;;;10.60;99.90;;;10.86;100.00;102763.81;4882042;29;20083;-68
2023/12/15 02:51:27;;;;;;;24.35;14.75;;;10.60;99.90;;;10.86;100.00;102771.75;4881768;29;20562;-68
2023/12/15 02:53:55;;;;;;;21.98;15.13;;;10.60;99.90;;;10.17;100.00;102651.81;4881856;29;20493;-68
2023/12/15 02:56:25;;;;;;;24.45;14.85;;;10.60;99.90;;;10.94;100.00;102782.56;4881836;29;20080;-68
2023/12/15 02:58:54;;;;;;;23.13;14.88;;;10.70;99.90;;;10.97;100.00;102782.63;4882058;29;20127;-68
2023/12/15 03:01:23;;;;;;;25.73;14.52;;;10.70;99.90;;;10.96;100.00;102789.69;4881702;29;20053;-68
2023/12/15 03:03:51;;;;;;;22.50;14.15;;;10.70;99.90;;;10.93;100.00;102786.97;4881547;29;20131;-68
2023/12/15 03:06:19;;;;;;;22.35;14.13;;;10.70;99.90;;;10.91;100.00;102788.69;4881714;29;20053;-68
2023/12/15 03:08:48;;;;;;;23.98;14.55;;;10.70;99.90;;;10.21;100.00;102676.59;4880401;29;20065;-70
2023/12/15 03:11:16;;;;;;;22.20;13.90;;;10.60;99.90;;;10.89;100.00;102800.97;4881491;29;20109;-68
2023/12/15 03:13:46;;;;;;;21.73;13.45;;;10.60;99.90;;;10.90;100.00;102802.75;4881785;29;20057;-68
2023/12/15 03:16:14;;;;;;;23.87;14.03;;;10.60;99.90;;;10.88;100.00;102804.47;4881623;29;20064;-68
2023/12/15 03:18:42;;;;;;;24.92;14.73;;;10.60;99.90;;;10.82;100.00;102797.28;4881593;29;20100;-68
2023/12/15 03:21:11;;;;;;;25.35;14.65;;;10.60;99.90;;;10.21;100.00;102677.50;4881275;29;20047;-68
2023/12/15 03:23:39;;;;;;;24.40;14.02;;;10.60;99.90;;;10.97;100.00;102804.72;4881420;29;20073;-68
2023/12/15 03:26:08;;;;;;;18.90;12.57;;;10.70;99.90;;;11.03;100.00;102803.97;4881317;29;20041;-68
2023/12/15 03:28:36;;;;;;;22.73;13.63;;;10.70;99.90;;;11.01;100.00;102819.84;4879929;29;20525;-68
2023/12/15 03:31:06;;;;;;;24.20;14.02;;;10.70;99.90;;;11.05;100.00;102808.47;4881505;29;20144;-68
2023/12/15 03:33:36;;;;;;;23.42;13.25;;;10.70;99.90;;;11.12;100.00;102818.34;4881344;29;20454;-69
2023/12/15 03:36:06;;;;;;;23.35;13.10;;;10.80;99.90;;;11.15;100.00;102807.81;4881235;29;20120;-67
2023/12/15 03:38:35;;;;;;;25.17;13.38;;;10.90;99.90;;;11.16;100.00;102798.13;4881127;29;20060;-68
2023/12/15 03:41:04;;;;;;;22.60;13.38;;;10.90;99.90;;;11.19;100.00;102807.03;4880958;29;20071;-68
2023/12/15 03:43:33;;;;;;;29.40;13.43;;;10.90;99.90;;;11.21;100.00;102812.34;4881097;29;20063;-68
2023/12/15 03:46:02;;;;;;;23.27;12.48;;;10.90;99.90;;;11.26;100.00;102822.22;4881377;29;20105;-68
2023/12/15 03:48:32;;;;;;;21.88;12.90;;;11.00;99.90;;;11.27;100.00;102828.41;4881069;29;20041;-68
2023/12/15 03:51:00;;;;;;;21.30;12.23;;;11.00;99.90;;;11.28;100.00;102828.47;4880913;29;20502;-68
2023/12/15 03:53:29;;;;;;;23.50;12.43;;;11.00;99.90;;;11.30;99.98;102826.75;4880705;29;20309;-68
2023/12/15 03:55:57;;;;;;;22.88;11.55;;;11.00;99.90;;;11.32;99.75;102832.97;4880592;29;20037;-69
2023/12/15 03:58:25;;;;;;;20.48;11.60;;;11.10;99.90;;;11.32;99.87;102835.63;4880630;29;20048;-68
2023/12/15 04:00:54;;;;;;;28.80;12.65;;;11.10;99.90;;;11.33;99.77;102839.16;4880557;29;20049;-68
2023/12/15 04:03:23;;;;;;;27.05;12.07;;;11.10;99.90;;;11.35;99.88;102850.69;4880563;29;20049;-68
2023/12/15 04:05:53;;;;;;;20.60;11.63;;;11.10;99.90;;;11.38;99.87;102851.63;4880709;29;20109;-68
2023/12/15 04:08:22;;;;;;;21.60;11.77;;;11.10;99.90;;;11.37;99.44;102855.16;4880459;29;20049;-68
2023/12/15 04:10:50;;;;;;;26.02;11.48;;;11.10;99.90;;;11.39;99.43;102853.44;4880552;29;20057;-70
2023/12/15 04:13:19;;;;;;;19.80;10.98;;;11.10;99.90;;;11.37;99.47;102854.25;4880537;29;20041;-68
2023/12/15 04:15:47;;;;;;;23.25;11.43;;;11.10;99.90;;;11.32;99.45;102847.97;4880314;29;20049;-68
2023/12/15 04:18:16;;;;;;;23.00;12.20;;;11.10;99.90;;;11.30;99.59;102853.25;4880512;29;20101;-68
2023/12/15 04:20:45;;;;;;;26.98;12.00;;;11.00;99.90;;;11.23;99.72;102861.88;4879643;29;20083;-67
2023/12/15 04:23:15;;;;;;;24.00;12.60;;;11.00;99.90;;;11.12;100.00;102863.38;4880171;29;20479;-68
2023/12/15 04:25:43;;;;;;;21.13;11.85;;;10.90;99.90;;;11.21;100.00;102860.94;4880208;29;20141;-68
2023/12/15 04:28:12;;;;;;;24.75;11.23;;;10.90;99.90;;;11.26;100.00;102863.72;4894833;29;20091;-68
2023/12/15 04:30:40;;;;;;;26.08;11.77;;;11.00;99.90;;;11.29;100.00;102859.38;4880044;29;20141;-68
2023/12/15 04:33:08;;;;;;;23.17;11.50;;;11.00;99.90;;;11.32;99.74;102867.41;4880150;29;20460;-68
2023/12/15 04:35:37;;;;;;;27.75;10.90;;;11.00;99.90;;;11.35;99.45;102871.88;4880157;29;20057;-67
2023/12/15 04:38:05;;;;;;;22.10;11.93;;;11.10;99.90;;;11.23;100.00;102879.50;4880127;29;20037;-68
2023/12/15 04:40:34;;;;;;;28.27;11.05;;;11.00;99.90;;;11.30;100.00;102862.94;4879868;29;20101;-68
2023/12/15 04:43:03;;;;;;;21.08;11.02;;;11.00;99.90;;;11.21;100.00;102841.47;4879803;29;20140;-68
2023/12/15 04:45:31;;;;;;;19.70;11.13;;;11.10;99.90;;;11.39;99.79;102874.66;4879858;29;20395;-68
2023/12/15 04:47:59;;;;;;;18.90;11.07;;;11.10;99.90;;;11.43;99.60;102881.81;4880194;29;20053;-67
2023/12/15 04:50:28;;;;;;;21.60;11.23;;;11.20;99.90;;;11.44;99.33;102877.41;4879726;29;20510;-68
2023/12/15 04:52:57;;;;;;;25.50;11.18;;;11.20;99.90;;;11.44;99.25;102890.66;4879671;29;20101;-67
2023/12/15 04:55:25;;;;;;;22.95;11.00;;;11.20;99.90;;;11.43;99.22;102903.00;4879655;29;20068;-68
2023/12/15 04:57:55;;;;;;;23.42;11.05;;;11.20;99.90;;;11.44;99.36;102904.78;4880004;29;20534;-68
2023/12/15 05:00:23;;;;;;;18.60;10.70;;;11.20;99.90;;;11.43;99.18;102913.63;4879618;29;20073;-68
2023/12/15 05:02:51;;;;;;;22.45;11.27;;;11.20;99.90;;;11.40;99.16;102907.34;4878216;29;20105;-68
2023/12/15 05:05:20;;;;;;;22.27;11.52;;;11.20;99.90;;;11.31;99.22;102908.00;4879381;29;20056;-68
2023/12/15 05:07:50;;;;;;;27.52;11.25;;;11.10;99.90;;;10.71;99.75;102811.09;4879477;29;20045;-68
2023/12/15 05:10:18;;;;;;;23.80;10.98;;;11.00;99.90;;;11.26;100.00;102909.66;4879705;29;20057;-68
2023/12/15 05:12:46;;;;;;;25.73;11.00;;;11.00;99.90;;;11.27;99.89;102908.78;4879429;29;20582;-67
2023/12/15 05:15:16;;;;;;;25.00;10.57;;;11.00;99.90;;;11.30;99.85;102911.53;4879237;29;20045;-67
2023/12/15 05:17:44;;;;;;;25.08;11.18;;;11.00;99.90;;;11.34;99.78;102923.09;4879479;29;20076;-68
2023/12/15 05:20:13;;;;;;;29.77;11.70;;;11.00;99.90;;;11.36;99.80;102934.63;4879279;29;20124;-69
2023/12/15 05:22:42;;;;;;;23.77;10.90;;;11.10;99.90;;;11.35;99.83;102936.38;4879158;29;20069;-67
2023/12/15 05:25:10;;;;;;;24.23;11.13;;;11.10;99.90;;;11.35;99.85;102931.06;4879205;29;20140;-68
2023/12/15 05:27:39;;;;;;;26.08;11.18;;;11.10;99.90;;;11.33;100.00;102938.09;4879140;29;20056;-68
2023/12/15 05:30:10;;;;;;;24.25;11.27;;;11.10;99.90;;;11.38;100.00;102941.72;4879203;29;20044;-68
2023/12/15 05:32:39;;;;;;;;;;;11.10;99.90;;;11.39;100.00;102942.63;4878685;29;20517;-67
2023/12/15 05:35:08;;;;;;;28.70;10.65;;;11.20;99.90;;;11.45;100.00;102942.78;4879006;29;20397;-67
2023/12/15 05:37:37;;;;;;;19.73;10.02;;;11.20;99.90;;;11.44;99.87;102931.28;4879003;29;20447;-67
2023/12/15 05:40:09;;;;;;;29.98;12.07;;;11.20;99.90;;;11.46;99.96;102928.66;4879288;29;20161;-68
2023/12/15 05:42:37;;;;;;;30.63;9.88;;;11.20;99.90;;;11.47;99.76;102942.00;4878951;29;20055;-68
2023/12/15 05:45:08;;;;;;;20.75;10.45;;;11.10;99.90;;;11.44;99.94;102941.88;4878956;29;20052;-68
2023/12/15 05:47:39;;;;;;;22.63;11.07;;;11.10;99.90;;;11.41;99.88;102944.47;4909181;29;20049;-68
2023/12/15 05:50:09;;;;;;;30.48;11.32;;;11.10;99.90;;;11.37;99.80;102941.69;4879130;29;20049;-68
2023/12/15 05:52:37;;;;;;;23.70;10.73;;;11.10;99.90;;;11.36;100.00;102942.56;4878828;29;20135;-68
2023/12/15 05:55:07;;;;;;;25.10;10.77;;;11.10;99.90;;;11.32;99.87;102946.91;4878914;29;20503;-68
2023/12/15 05:57:35;;;;;;;21.10;10.47;;;11.10;99.90;;;11.34;99.95;102949.59;4877765;29;20053;-68
2023/12/15 06:00:05;;;;;;;29.27;10.75;;;11.10;99.90;;;11.29;99.75;102941.50;4893324;29;20041;-67
2023/12/15 06:02:33;;;;;;;26.02;10.10;;;11.10;99.90;;;11.28;99.70;102949.41;4878726;29;20086;-68
2023/12/15 06:05:03;;;;;;;21.33;10.60;;;11.10;99.90;;;11.30;100.00;102959.22;4878963;29;20076;-69
2023/12/15 06:07:33;;;;;;;28.80;10.90;;;11.10;99.90;;;11.31;99.94;102957.44;4878943;29;20049;-71
2023/12/15 06:10:03;;;;;;;30.23;11.10;;;11.10;99.90;;;11.33;99.87;102959.28;4878731;29;20045;-68
2023/12/15 06:12:31;;;;;;;27.95;10.63;;;11.00;99.90;;;11.32;99.78;102973.41;4878673;29;20052;-68
2023/12/15 06:14:59;;;;;;;25.88;10.50;;;11.10;99.90;;;11.28;99.87;102973.25;4878667;29;20053;-68
2023/12/15 06:17:28;;;;;;;25.83;10.75;;;11.10;99.90;;;11.34;99.91;102976.94;4878640;29;20090;-69
2023/12/15 06:19:57;;;;;;;26.05;10.40;;;11.10;99.90;;;11.32;99.88;102984.00;4878529;29;20144;-68
2023/12/15 06:22:26;;;;;;;25.40;10.80;;;11.10;99.90;;;11.31;99.75;102986.59;4878570;29;20044;-68
2023/12/15 06:24:55;;;;;;;23.95;10.52;;;11.00;99.90;;;11.32;99.99;102978.69;4893086;29;20140;-68
2023/12/15 06:27:23;;;;;;;26.77;10.63;;;11.00;99.90;;;11.31;100.00;102982.19;4878591;29;20105;-68
2023/12/15 06:29:51;;;;;;;25.70;10.18;;;11.10;99.90;;;11.34;99.91;102976.94;4893021;29;20049;-68
2023/12/15 06:32:20;;;;;;;23.67;11.02;;;11.10;99.90;;;11.32;99.79;102984.00;4878653;29;20053;-68
2023/12/15 06:34:48;;;;;;;28.73;10.60;;;11.10;99.90;;;11.29;99.80;102980.34;4878752;29;20037;-68
2023/12/15 06:37:16;;;;;;;26.55;11.07;;;11.00;99.90;;;11.28;99.74;102990.06;4878483;29;20482;-68
2023/12/15 06:39:47;;;;;;;28.73;11.20;;;11.00;99.90;;;11.28;99.83;103003.31;4878475;29;20080;-68
2023/12/15 06:42:15;;;;;;;23.70;10.43;;;11.00;99.90;;;11.30;99.73;103011.28;4877481;29;20052;-68
2023/12/15 06:44:44;;;;;;;23.10;11.20;;;11.00;99.90;;;11.31;99.70;103016.63;4881810;29;20562;-68
2023/12/15 06:47:12;;;;;;;26.55;9.70;;;11.10;99.90;;;11.31;99.76;103016.63;4881729;29;20049;-68
2023/12/15 06:49:40;;;;;;;27.35;9.52;;;11.10;99.90;;;11.34;99.51;103034.38;4882032;29;20510;-68
2023/12/15 06:52:09;;;;;;;29.35;11.38;;;11.10;99.90;;;11.35;99.60;103029.09;4882229;29;20048;-68
2023/12/15 06:54:40;;;;;;;21.77;9.55;;;11.00;99.90;;;11.36;99.61;103028.25;4881840;29;20124;-68
2023/12/15 06:57:10;;;;;;;22.42;9.93;;;11.10;99.90;;;11.34;99.43;103032.59;4881778;29;20071;-68
2023/12/15 06:59:38;;;;;;;29.02;10.40;;;11.10;99.90;;;11.39;99.36;103028.34;4881652;29;20167;-68
2023/12/15 07:02:07;;;;;;;22.90;9.65;;;11.10;99.90;;;11.41;99.17;103042.53;4881566;29;20053;-68
2023/12/15 07:04:36;;;;;;;25.80;10.50;;;11.10;99.90;;;11.43;99.10;103055.81;4881609;29;20047;-68
2023/12/15 07:07:05;;;;;;;27.13;10.70;;;11.10;99.90;;;11.45;98.87;103055.00;4881491;29;20057;-69
2023/12/15 07:09:33;;;;;;;18.10;8.55;;;11.20;99.90;;;11.45;98.81;103043.50;4881835;29;20044;-68
2023/12/15 07:12:02;;;;;;;25.52;10.07;;;11.20;99.90;;;11.44;98.59;103045.25;4881457;29;20055;-71
2023/12/15 07:14:32;;;;;;;23.10;9.40;;;11.20;99.90;;;11.40;98.81;103035.41;4881627;29;20422;-68
2023/12/15 07:17:00;;;;;;;29.53;9.93;;;11.20;99.90;;;10.79;98.55;102948.09;4881592;29;20153;-68
2023/12/15 07:19:29;;;;;;;31.70;10.30;;;11.10;99.90;;;11.32;98.84;103046.69;4881413;29;20144;-69
2023/12/15 07:21:57;;;;;;;23.38;9.00;;;11.10;99.90;;;11.40;98.85;103039.84;4881297;29;20060;-70
2023/12/15 07:24:26;;;;;;;25.70;9.45;;;11.20;99.90;;;11.39;98.66;103048.63;4881208;29;20073;-69
2023/12/15 07:26:54;;;;;;;25.10;9.45;;;11.10;99.90;;;11.37;98.63;103042.38;4881491;29;20053;-69
2023/12/15 07:29:22;;;;;;;22.45;9.23;;;11.10;99.90;;;11.40;98.60;103053.97;4881563;29;20045;-68
2023/12/15 07:31:52;;;;;;;26.83;9.15;;;11.10;99.90;;;11.40;98.34;103053.09;4881306;29;20053;-69
2023/12/15 07:34:21;;;;;;;21.00;8.83;;;11.10;99.90;;;11.44;98.20;103054.97;4881426;29;20053;-69
2023/12/15 07:36:49;;;;;;;23.55;9.35;;;11.10;99.90;;;11.45;98.03;103067.34;4881025;29;20049;-69
2023/12/15 07:39:21;;;;;;;19.85;8.75;;;11.10;99.90;;;11.44;97.82;103060.28;4880021;29;20244;-69
2023/12/15 07:41:50;;;;;;;16.90;9.15;;;11.20;99.90;;;11.47;97.65;103065.66;4880995;29;20069;-70
2023/12/15 07:44:18;;;;;;;21.85;8.82;;;11.20;99.90;;;11.48;97.60;103070.06;4880816;29;20053;-69
2023/12/15 07:46:47;;;;;;;21.40;8.85;;;11.20;99.90;;;11.45;97.39;103070.00;4880922;29;20049;-70
2023/12/15 07:49:17;;;;;;;24.02;9.25;;;11.20;99.90;;;11.40;97.34;103074.28;4895204;29;20053;-71
2023/12/15 07:51:46;;;;;;;24.70;9.00;;;11.20;99.90;;;11.45;97.18;103083.25;4880741;29;20045;-71
2023/12/15 07:54:14;;;;;;;25.63;9.45;;;11.20;99.90;;;11.46;97.10;103092.97;4880091;29;20349;-69
2023/12/15 07:56:43;;;;;;;24.45;9.65;;;11.20;99.90;;;11.48;97.22;103107.19;4880574;29;20472;-68
2023/12/15 07:59:12;;;;;;;26.52;9.07;;;11.20;99.90;;;11.51;96.85;103118.78;4880726;29;20078;-72
2023/12/15 08:01:41;;;;;;;16.42;8.38;;;11.20;99.90;;;11.54;96.72;103121.50;4880673;29;20049;-70
2023/12/15 08:04:10;;;;;;;23.42;8.98;;;11.30;99.90;;;11.53;96.37;103121.47;4880593;29;20041;-69
2023/12/15 08:06:40;;;;;;;19.77;9.23;;;11.30;99.90;;;11.51;96.30;103117.88;4880298;29;20061;-72
2023/12/15 08:09:08;;;;;;;18.63;8.27;;;11.30;99.90;;;11.57;96.25;103118.97;4880507;29;20072;-71
2023/12/15 08:11:37;;;;;;;23.73;8.93;;;11.30;99.90;;;11.56;96.12;103129.50;4880656;29;20053;-70
2023/12/15 08:14:06;;;;;;;23.00;9.13;;;11.30;99.90;;;11.44;96.02;103113.28;4881065;29;20428;-69
2023/12/15 08:16:36;;;;;;;21.75;8.88;;;11.30;99.90;;;11.45;96.01;103113.31;4880521;29;20044;-71
2023/12/15 08:19:06;;;;;;;21.73;8.38;;;11.30;99.90;;;11.57;95.92;103129.56;4880443;29;20045;-73
2023/12/15 08:21:36;;;;;;;;;;;11.30;99.90;;;11.54;95.58;103131.22;4880628;29;20049;-70
2023/12/15 08:24:07;;;;;;;18.35;7.75;;;11.40;99.90;;;11.53;95.58;103140.94;4880616;29;20378;-72
2023/12/15 08:26:35;;;;;;;24.30;8.80;;;11.30;99.90;;;11.58;95.58;103144.59;4880355;29;20045;-72
2023/12/15 08:29:04;;;;;;;24.65;8.80;;;11.30;99.90;;;11.57;95.56;103144.56;4880009;29;20059;-72
2023/12/15 08:31:32;;;;;;;20.48;8.20;;;11.30;99.90;;;11.58;95.16;103162.25;4879965;29;20056;-71
2023/12/15 08:34:01;;;;;;;20.23;7.90;;;11.30;99.90;;;11.55;95.29;103163.09;4894351;29;20048;-68
2023/12/15 08:36:30;;;;;;;22.85;8.52;;;11.30;99.90;;;11.55;95.49;103170.13;4879921;29;20049;-71
2023/12/15 08:38:58;;;;;;;21.70;9.02;;;11.30;99.90;;;11.54;95.25;103171.88;4879933;29;20391;-71
2023/12/15 08:41:28;;;;;;;21.70;8.45;;;11.30;99.90;;;11.54;95.19;103177.16;4880106;29;20052;-68
2023/12/15 08:43:56;;;;;;;22.92;8.40;;;11.30;99.90;;;11.56;95.20;103178.13;4879916;29;20056;-68
2023/12/15 08:46:25;;;;;;;20.73;8.30;;;11.30;99.90;;;11.57;95.05;103181.69;4879914;29;20045;-66
2023/12/15 08:48:53;;;;;;;19.35;8.77;;;11.30;99.90;;;11.56;94.83;103186.06;4879776;29;20108;-67
2023/12/15 08:51:22;;;;;;;19.08;8.25;;;11.30;99.90;;;11.58;94.86;103183.44;4879943;29;20049;-69
2023/12/15 08:53:50;;;;;;;20.13;8.20;;;11.30;99.90;;;11.62;94.68;103195.94;4880243;29;20095;-68
2023/12/15 08:56:19;;;;;;;26.63;8.55;;;11.30;99.90;;;11.64;94.50;103192.50;4879518;29;20049;-70
2023/12/15 08:58:48;;;;;;;22.67;7.65;;;11.40;99.90;;;11.66;94.27;103198.78;4879535;29;20045;-72
2023/12/15 09:01:18;;;;;;;18.23;8.05;;;11.40;99.90;;;11.62;94.11;103204.81;4879643;29;20482;-67
2023/12/15 09:03:46;;;;;;;21.38;8.18;;;11.40;99.90;;;11.57;93.75;103185.22;4878293;29;20055;-69
2023/12/15 09:06:15;;;;;;;21.92;8.02;;;11.40;99.90;;;11.65;93.69;103210.22;4879415;29;20057;-68
2023/12/15 09:08:56;;;;;;;22.55;8.48;;;11.40;99.90;;;11.63;93.11;103211.00;4879345;29;20053;-68
2023/12/15 09:11:25;;;;;;;19.65;7.65;;;11.40;99.90;;;11.63;92.71;103219.84;4879269;29;20441;-69
2023/12/15 09:13:55;;;;;;;24.35;7.68;;;11.40;99.90;;;11.64;92.70;103226.97;4879505;29;20170;-69
2023/12/15 09:16:24;;;;;;;20.95;7.53;;;11.40;99.90;;;11.72;92.10;103243.13;4879451;29;20104;-70
2023/12/15 09:18:52;;;;;;;15.48;7.38;;;11.50;99.90;;;11.77;92.18;103244.13;4879358;29;20535;-69
2023/12/15 09:21:21;;;;;;;21.90;7.15;;;11.50;99.90;;;11.81;91.54;103250.44;4879093;29;20052;-68
2023/12/15 09:23:49;;;;;;;21.98;7.20;;;11.60;99.90;;;11.74;89.30;103252.00;4879380;29;20045;-69
2023/12/15 09:26:18;;;;;;;24.25;7.35;;;11.50;99.90;;;11.61;87.83;103260.44;4879172;29;20060;-70
2023/12/15 09:28:46;;;;;;;21.38;6.70;;;11.40;99.90;;;11.60;86.70;103261.28;4879119;29;20410;-69
2023/12/15 09:31:16;;;;;;;15.55;6.40;;;11.40;99.90;;;11.59;86.46;103260.38;4879222;29;20422;-70
2023/12/15 09:33:44;;;;;;;22.07;7.17;;;11.40;99.90;;;11.52;86.45;103270.75;4893633;29;20052;-68
2023/12/15 09:36:13;;;;;;;17.98;6.90;;;11.30;99.90;;;11.45;86.55;103277.63;4879276;29;20057;-70
2023/12/15 09:38:41;;;;;;;21.08;7.05;;;11.30;99.90;;;11.43;86.88;103284.63;4879000;29;20056;-69
2023/12/15 09:41:10;;;;;;;18.30;6.60;;;11.30;99.90;;;11.52;86.57;103286.66;4878993;29;20057;-69
2023/12/15 09:43:38;;;;;;;22.67;7.32;;;11.30;99.90;;;11.62;86.32;103283.44;4893336;29;20519;-70
2023/12/15 09:46:08;;;;;;;21.42;7.75;;;11.30;99.90;;;11.61;85.02;103295.78;4878955;29;20049;-69
2023/12/15 09:48:38;;;;;;;27.92;8.50;;;11.40;99.90;;;11.59;84.56;103286.88;4878847;29;20049;-69
2023/12/15 09:51:10;;;;;;;19.75;7.38;;;11.40;99.90;;;10.95;83.98;103193.03;4877865;29;20444;-69
2023/12/15 09:53:39;;;;;;;16.77;6.70;;;11.30;99.90;;;11.58;83.58;103345.16;4879018;29;20095;-69
2023/12/15 09:56:09;;;;;;;19.50;6.78;;;11.30;99.90;;;11.39;83.58;103319.84;4908989;29;20041;-69
2023/12/15 09:58:39;;;;;;;18.42;6.40;;;11.20;99.90;;;11.62;83.22;103329.41;4878974;29;20484;-69
2023/12/15 10:01:07;;;;;;;21.77;7.38;;;11.40;99.90;;;11.50;82.55;103341.38;4878760;29;20072;-69
2023/12/15 10:03:37;;;;;;;21.17;7.10;;;11.30;99.90;;;11.57;82.66;103335.44;4878723;29;20068;-69
2023/12/15 10:06:06;;;;;;;21.98;6.95;;;11.40;99.90;;;11.58;81.81;103340.75;4878733;29;20152;-70